createdAt,value
2023-05-24T00:00:32.785Z,11.37
2023-05-24T00:03:00.793Z,16.37
2023-05-24T00:05:31.037Z,15.10
2023-05-24T00:08:00.519Z,15.10
2023-05-24T00:10:28.291Z,15.70
2023-05-24T00:12:56.213Z,21.67
2023-05-24T00:15:24.305Z,13.40
2023-05-24T00:17:52.328Z,17.00
2023-05-24T00:20:20.752Z,14.17
2023-05-24T00:22:48.967Z,18.87
2023-05-24T00:25:18.602Z,13.40
2023-05-24T00:27:46.571Z,18.77
2023-05-24T00:30:14.664Z,17.27
2023-05-24T00:32:42.702Z,16.97
2023-05-24T00:35:11.451Z,20.60
2023-05-24T00:37:44.941Z,15.37
2023-05-24T00:40:13.533Z,15.70
2023-05-24T00:42:42.733Z,14.83
2023-05-24T00:45:11.356Z,20.67
2023-05-24T00:47:39.967Z,20.73
2023-05-24T00:50:13.148Z,18.43
2023-05-24T00:52:43.030Z,18.57
2023-05-24T00:55:13.535Z,21.10
2023-05-24T00:57:43.000Z,22.10
2023-05-24T01:00:13.448Z,14.60
2023-05-24T01:02:41.812Z,16.93
2023-05-24T01:05:13.521Z,17.20
2023-05-24T01:07:54.584Z,18.57
2023-05-24T01:10:34.861Z,19.80
2023-05-24T01:13:15.649Z,13.90
2023-05-24T01:15:56.592Z,18.63
2023-05-24T01:18:33.150Z,23.50
2023-05-24T01:21:24.885Z,15.73
2023-05-24T01:24:14.287Z,17.17
2023-05-24T01:26:56.120Z,20.73
2023-05-24T01:29:26.393Z,24.23
2023-05-24T01:31:54.450Z,20.57
2023-05-24T01:34:22.352Z,19.27
2023-05-24T01:36:50.514Z,20.20
2023-05-24T01:39:19.549Z,22.53
2023-05-24T01:42:05.190Z,17.10
2023-05-24T01:44:40.115Z,19.27
2023-05-24T01:47:27.398Z,22.88
2023-05-24T01:50:07.180Z,20.67
2023-05-24T01:52:36.276Z,21.20
2023-05-24T01:55:08.257Z,15.53
2023-05-24T01:57:41.418Z,15.80
2023-05-24T02:00:14.171Z,19.60
2023-05-24T02:02:42.409Z,21.77
2023-05-24T02:05:11.878Z,21.30
2023-05-24T02:07:41.291Z,20.90
2023-05-24T02:10:10.245Z,19.17
2023-05-24T02:12:39.622Z,23.77
2023-05-24T02:15:10.598Z,22.93
2023-05-24T02:17:38.631Z,26.73
2023-05-24T02:20:08.490Z,16.17
2023-05-24T02:22:36.601Z,19.47
2023-05-24T02:25:06.132Z,17.70
2023-05-24T02:27:34.167Z,23.03
2023-05-24T02:30:04.076Z,27.13
2023-05-24T02:32:32.916Z,18.97
2023-05-24T02:35:01.919Z,18.93
2023-05-24T02:37:29.802Z,22.40
2023-05-24T02:39:57.683Z,23.23
2023-05-24T02:42:25.739Z,25.97
2023-05-24T02:44:53.617Z,21.40
2023-05-24T02:47:22.951Z,21.53
2023-05-24T02:49:51.572Z,21.10
2023-05-24T02:52:22.830Z,20.43
2023-05-24T02:54:51.141Z,20.90
2023-05-24T02:57:20.686Z,22.23
2023-05-24T02:59:48.919Z,28.03
2023-05-24T03:02:19.543Z,21.60
2023-05-24T03:04:48.951Z,23.57
2023-05-24T03:07:17.212Z,19.10
2023-05-24T03:09:45.272Z,25.73
2023-05-24T03:12:13.974Z,24.77
2023-05-24T03:14:41.862Z,27.00
2023-05-24T03:17:09.810Z,22.93
2023-05-24T03:19:37.748Z,20.43
2023-05-24T03:22:07.061Z,25.70
2023-05-24T03:24:38.355Z,25.43
2023-05-24T03:27:06.600Z,30.93
2023-05-24T03:29:34.587Z,28.83
2023-05-24T03:32:02.822Z,28.47
2023-05-24T03:34:31.412Z,22.23
2023-05-24T03:36:59.386Z,31.03
2023-05-24T03:39:28.701Z,27.43
2023-05-24T03:42:08.785Z,23.67
2023-05-24T03:44:38.895Z,26.27
2023-05-24T03:47:07.764Z,24.30
2023-05-24T03:49:35.805Z,27.00
2023-05-24T03:52:03.945Z,27.27
2023-05-24T03:54:33.176Z,26.67
2023-05-24T03:57:01.638Z,24.33
2023-05-24T03:59:30.915Z,22.83
2023-05-24T04:01:58.827Z,26.23
2023-05-24T04:04:26.852Z,30.03
2023-05-24T04:06:56.213Z,20.90
2023-05-24T04:09:24.651Z,26.20
2023-05-24T04:11:53.934Z,23.70
2023-05-24T04:14:21.910Z,25.60
2023-05-24T04:16:49.739Z,20.77
2023-05-24T04:19:20.141Z,28.13
2023-05-24T04:21:48.268Z,25.13
2023-05-24T04:24:16.382Z,23.47
2023-05-24T04:26:45.587Z,28.90
2023-05-24T04:29:14.969Z,21.47
2023-05-24T04:31:44.848Z,25.70
2023-05-24T04:34:14.360Z,24.93
2023-05-24T04:36:42.980Z,23.40
2023-05-24T04:39:12.996Z,21.27
2023-05-24T04:41:40.975Z,24.13
2023-05-24T04:44:09.899Z,25.77
2023-05-24T04:46:39.235Z,24.30
2023-05-24T04:49:08.432Z,26.70
2023-05-24T04:51:38.517Z,23.43
2023-05-24T04:54:08.979Z,22.83
2023-05-24T04:56:38.780Z,24.00
2023-05-24T04:59:08.223Z,23.53
2023-05-24T05:01:36.562Z,20.17
2023-05-24T05:04:06.238Z,22.10
2023-05-24T05:06:38.341Z,19.23
2023-05-24T05:09:09.341Z,24.27
2023-05-24T05:11:37.574Z,27.23
2023-05-24T05:14:06.235Z,23.03
2023-05-24T05:16:34.160Z,22.23
2023-05-24T05:19:04.488Z,23.17
2023-05-24T05:21:34.958Z,18.77
2023-05-24T05:24:04.065Z,26.40
2023-05-24T05:26:31.989Z,24.77
2023-05-24T05:28:59.946Z,22.47
2023-05-24T05:31:27.737Z,24.10
2023-05-24T05:33:55.600Z,27.27
2023-05-24T05:36:23.537Z,19.27
2023-05-24T05:38:52.903Z,21.13
2023-05-24T05:41:20.973Z,20.63
2023-05-24T05:43:49.027Z,24.40
2023-05-24T05:46:16.934Z,22.80
2023-05-24T05:48:46.462Z,27.40
2023-05-24T05:51:14.559Z,21.10
2023-05-24T05:53:42.449Z,23.00
2023-05-24T05:56:11.657Z,25.13
2023-05-24T05:58:39.782Z,23.33
2023-05-24T06:01:07.798Z,22.10
2023-05-24T06:03:36.046Z,26.70
2023-05-24T06:06:04.408Z,23.53
2023-05-24T06:08:34.961Z,23.10
2023-05-24T06:11:03.298Z,19.27
2023-05-24T06:13:33.044Z,22.00
2023-05-24T06:16:01.216Z,19.53
2023-05-24T06:18:30.620Z,19.03
2023-05-24T06:20:58.576Z,19.23
2023-05-24T06:23:26.485Z,19.80
2023-05-24T06:25:54.698Z,16.73
2023-05-24T06:28:22.742Z,19.07
2023-05-24T06:30:52.012Z,21.60
2023-05-24T06:33:19.984Z,20.20
2023-05-24T06:35:48.030Z,18.80
2023-05-24T06:38:16.129Z,20.77
2023-05-24T06:40:44.474Z,17.63
2023-05-24T06:43:12.537Z,20.90
2023-05-24T06:45:42.240Z,22.10
2023-05-24T06:48:12.471Z,17.20
2023-05-24T06:50:42.601Z,17.93
2023-05-24T06:53:10.853Z,20.60
2023-05-24T06:55:38.799Z,23.40
2023-05-24T06:58:07.041Z,24.70
2023-05-24T07:00:34.775Z,16.50
2023-05-24T07:03:02.785Z,17.80
2023-05-24T07:05:32.234Z,19.53
2023-05-24T07:08:00.159Z,20.40
2023-05-24T07:10:28.042Z,15.93
2023-05-24T07:12:56.132Z,14.77
2023-05-24T07:15:23.955Z,19.63
2023-05-24T07:17:51.861Z,18.70
2023-05-24T07:20:19.813Z,17.67
2023-05-24T07:22:49.133Z,16.40
2023-05-24T07:25:17.476Z,20.20
2023-05-24T07:27:45.669Z,15.73
2023-05-24T07:30:27.916Z,19.03
2023-05-24T07:35:29.233Z,13.10
2023-05-24T07:37:58.594Z,18.47
2023-05-24T07:40:26.652Z,14.30
2023-05-24T07:42:54.500Z,21.30
2023-05-24T07:45:22.890Z,20.17
2023-05-24T07:47:50.843Z,15.23
2023-05-24T07:50:19.286Z,15.57
2023-05-24T07:52:47.318Z,15.00
2023-05-24T07:55:16.588Z,16.73
2023-05-24T07:57:44.480Z,13.25
2023-05-24T08:00:16.622Z,14.43
2023-05-24T08:02:49.009Z,15.85
2023-05-24T08:05:17.682Z,22.17
2023-05-24T08:07:45.601Z,14.38
2023-05-24T08:10:14.068Z,18.73
2023-05-24T08:12:43.596Z,16.73
2023-05-24T08:15:11.860Z,15.35
2023-05-24T08:17:39.839Z,15.38
2023-05-24T08:20:16.944Z,14.07
2023-05-24T08:22:45.370Z,24.15
2023-05-24T08:25:13.174Z,18.98
2023-05-24T08:27:41.271Z,13.60
2023-05-24T08:30:12.546Z,16.25
2023-05-24T08:32:40.598Z,12.40
2023-05-24T08:35:19.482Z,14.77
2023-05-24T08:37:49.029Z,12.30
2023-05-24T08:40:18.208Z,18.05
2023-05-24T08:42:46.785Z,13.73
2023-05-24T08:45:18.056Z,14.23
2023-05-24T08:47:48.577Z,15.88
2023-05-24T08:50:17.841Z,16.85
2023-05-24T08:52:46.667Z,11.27
2023-05-24T08:55:16.148Z,16.95
2023-05-24T08:57:45.966Z,14.85
2023-05-24T09:00:17.020Z,17.20
2023-05-24T09:02:46.731Z,19.55
2023-05-24T09:05:17.411Z,15.40
2023-05-24T09:07:46.593Z,26.17
2023-05-24T09:10:15.639Z,13.52
2023-05-24T09:12:48.858Z,12.43
2023-05-24T09:15:19.185Z,15.15
2023-05-24T09:17:47.564Z,14.30
2023-05-24T09:20:15.714Z,19.85
2023-05-24T09:22:45.039Z,8.02
2023-05-24T09:25:14.887Z,14.27
2023-05-24T09:27:50.721Z,10.63
2023-05-24T09:30:21.590Z,13.15
2023-05-24T09:32:58.582Z,14.88
2023-05-24T09:35:27.196Z,16.10
2023-05-24T09:37:57.362Z,14.83
2023-05-24T09:40:26.335Z,18.23
2023-05-24T09:43:05.158Z,15.30
2023-05-24T09:45:40.984Z,17.90
2023-05-24T09:48:12.620Z,12.48
2023-05-24T09:50:41.550Z,13.93
2023-05-24T09:53:09.815Z,14.75
2023-05-24T09:55:38.204Z,12.43
2023-05-24T09:58:08.448Z,13.48
2023-05-24T10:00:41.605Z,13.20
2023-05-24T10:03:12.808Z,19.80
2023-05-24T10:05:44.732Z,21.65
2023-05-24T10:08:14.425Z,14.50
2023-05-24T10:10:43.667Z,14.05
2023-05-24T10:13:15.780Z,15.13
2023-05-24T10:15:45.497Z,18.77
2023-05-24T10:18:14.386Z,10.52
2023-05-24T10:20:43.209Z,15.30
2023-05-24T10:23:19.217Z,12.63
2023-05-24T10:25:53.816Z,14.65
2023-05-24T10:28:24.857Z,15.73
2023-05-24T10:31:07.495Z,15.45
2023-05-24T10:33:38.172Z,14.15
2023-05-24T10:36:10.621Z,18.75
2023-05-24T10:38:41.731Z,14.35
2023-05-24T10:41:09.789Z,14.07
2023-05-24T10:43:38.809Z,11.77
2023-05-24T10:46:10.884Z,12.32
2023-05-24T10:48:41.461Z,18.27
2023-05-24T10:51:33.642Z,17.63
2023-05-24T10:54:13.715Z,15.65
2023-05-24T10:56:44.609Z,15.02
2023-05-24T10:59:32.008Z,15.27
2023-05-24T11:02:01.957Z,16.40
2023-05-24T11:04:37.815Z,15.27
2023-05-24T11:07:11.581Z,13.68
2023-05-24T11:09:47.241Z,14.57
2023-05-24T11:12:17.731Z,12.63
2023-05-24T11:14:52.345Z,11.50
2023-05-24T11:17:23.848Z,13.20
2023-05-24T11:19:54.523Z,12.18
2023-05-24T11:22:26.763Z,16.67
2023-05-24T11:24:54.883Z,16.50
2023-05-24T11:27:24.332Z,14.38
2023-05-24T11:29:52.885Z,15.80
2023-05-24T11:32:24.009Z,16.35
2023-05-24T11:34:52.464Z,13.00
2023-05-24T11:37:28.632Z,17.92
2023-05-24T11:40:05.132Z,14.85
2023-05-24T11:42:34.047Z,11.88
2023-05-24T11:45:02.038Z,11.27
2023-05-24T11:47:35.109Z,12.45
2023-05-24T11:50:03.423Z,16.70
2023-05-24T11:52:31.388Z,15.20
2023-05-24T11:54:59.333Z,16.83
2023-05-24T11:57:38.285Z,13.00
2023-05-24T12:00:11.448Z,15.07
2023-05-24T12:02:42.300Z,16.55
2023-05-24T12:05:12.527Z,15.07
2023-05-24T12:07:40.867Z,13.63
2023-05-24T12:10:10.534Z,18.65
2023-05-24T12:15:14.725Z,15.13
2023-05-24T12:17:50.005Z,15.15
2023-05-24T12:22:51.730Z,14.48
2023-05-24T12:25:22.549Z,16.42
2023-05-24T12:27:55.797Z,19.52
2023-05-24T12:30:24.067Z,13.63
2023-05-24T12:32:54.672Z,14.43
2023-05-24T12:35:23.946Z,15.20
2023-05-24T12:38:02.704Z,16.45
2023-05-24T12:40:33.547Z,13.50
2023-05-24T12:43:04.764Z,15.82
2023-05-24T12:45:33.054Z,16.25
2023-05-24T12:48:02.822Z,14.35
2023-05-24T12:50:31.462Z,17.63
2023-05-24T12:52:59.256Z,13.48
2023-05-24T12:55:28.603Z,15.15
2023-05-24T12:57:58.597Z,12.52
2023-05-24T13:00:28.803Z,16.33
2023-05-24T13:02:58.899Z,9.93
2023-05-24T13:05:30.087Z,14.50
2023-05-24T13:07:58.170Z,15.63
2023-05-24T13:10:27.622Z,11.20
2023-05-24T13:12:56.202Z,13.48
2023-05-24T13:15:24.098Z,12.55
2023-05-24T13:17:52.098Z,13.93
2023-05-24T13:20:22.184Z,12.32
2023-05-24T13:22:51.567Z,15.43
2023-05-24T13:25:22.453Z,9.82
2023-05-24T13:27:50.452Z,11.48
2023-05-24T13:30:18.768Z,12.75
2023-05-24T13:32:46.720Z,12.25
2023-05-24T13:35:14.710Z,12.95
2023-05-24T13:37:42.663Z,11.70
2023-05-24T13:40:12.619Z,12.55
2023-05-24T13:42:41.136Z,14.88
2023-05-24T13:45:11.659Z,11.88
2023-05-24T13:47:41.062Z,11.45
2023-05-24T13:50:11.160Z,8.20
2023-05-24T13:52:39.620Z,11.48
2023-05-24T13:55:08.969Z,9.75
2023-05-24T14:00:11.072Z,10.60
2023-05-24T14:02:39.567Z,10.48
2023-05-24T14:05:25.748Z,9.13
2023-05-24T14:07:57.461Z,10.10
2023-05-24T14:10:25.488Z,10.73
2023-05-24T14:13:11.271Z,9.43
2023-05-24T14:15:42.193Z,8.00
2023-05-24T14:18:10.887Z,8.30
2023-05-24T14:20:40.415Z,10.32
2023-05-24T14:23:08.881Z,7.88
2023-05-24T14:25:36.948Z,11.25
2023-05-24T14:28:08.514Z,14.35
2023-05-24T14:30:37.880Z,13.77
2023-05-24T14:33:08.008Z,10.93
2023-05-24T14:35:39.611Z,8.82
2023-05-24T14:38:10.836Z,11.23
2023-05-24T14:40:40.133Z,12.88
2023-05-24T14:43:10.662Z,9.23
2023-05-24T14:45:41.613Z,11.02
2023-05-24T14:48:11.727Z,11.82
2023-05-24T14:50:41.256Z,10.52
2023-05-24T14:53:11.863Z,6.43
2023-05-24T14:55:42.466Z,10.23
2023-05-24T14:58:12.568Z,10.45
2023-05-24T15:00:43.193Z,10.48
2023-05-24T15:03:12.797Z,10.75
2023-05-24T15:05:42.664Z,11.52
2023-05-24T15:08:13.783Z,10.98
2023-05-24T15:10:44.488Z,11.13
2023-05-24T15:13:14.453Z,11.32
2023-05-24T15:15:42.293Z,9.93
2023-05-24T15:18:10.491Z,8.68
2023-05-24T15:20:38.404Z,10.68
2023-05-24T15:23:06.462Z,7.38
2023-05-24T15:25:34.235Z,6.95
2023-05-24T15:28:02.279Z,9.65
2023-05-24T15:30:31.594Z,10.80
2023-05-24T15:32:59.486Z,8.40
2023-05-24T15:35:27.269Z,8.20
2023-05-24T15:37:55.071Z,6.90
2023-05-24T15:40:24.437Z,8.13
2023-05-24T15:42:53.005Z,10.20
2023-05-24T15:45:21.352Z,9.38
2023-05-24T15:47:50.820Z,8.80
2023-05-24T15:50:25.835Z,11.93
2023-05-24T15:52:59.867Z,10.25
2023-05-24T15:55:28.054Z,7.25
2023-05-24T15:57:57.699Z,8.02
2023-05-24T16:00:25.835Z,11.20
2023-05-24T16:02:56.982Z,11.98
2023-05-24T16:05:25.749Z,11.15
2023-05-24T16:07:53.687Z,7.63
2023-05-24T16:10:21.653Z,10.05
2023-05-24T16:12:49.601Z,9.63
2023-05-24T16:15:17.775Z,6.72
2023-05-24T16:17:45.762Z,10.95
2023-05-24T16:20:15.222Z,7.25
2023-05-24T16:22:49.246Z,9.50
2023-05-24T16:25:17.190Z,10.02
2023-05-24T16:27:45.011Z,10.05
2023-05-24T16:30:14.835Z,9.55
2023-05-24T16:32:45.072Z,9.35
2023-05-24T16:35:13.187Z,11.85
2023-05-24T16:37:42.353Z,10.35
2023-05-24T16:40:11.764Z,10.48
2023-05-24T16:42:39.707Z,8.18
2023-05-24T16:45:08.796Z,9.18
2023-05-24T16:47:37.239Z,9.02
2023-05-24T16:50:06.891Z,10.63
2023-05-24T16:52:35.124Z,9.88
2023-05-24T16:55:05.922Z,8.45
2023-05-24T16:57:35.373Z,7.25
2023-05-24T17:00:03.997Z,11.52
2023-05-24T17:02:32.170Z,9.27
2023-05-24T17:05:00.236Z,7.72
2023-05-24T17:07:28.118Z,11.88
2023-05-24T17:09:55.884Z,13.10
2023-05-24T17:12:25.128Z,8.90
2023-05-24T17:14:52.953Z,8.05
2023-05-24T17:17:20.980Z,8.52
2023-05-24T17:19:48.930Z,7.78
2023-05-24T17:22:16.776Z,11.23
2023-05-24T17:24:44.636Z,10.60
2023-05-24T17:27:13.086Z,10.48
2023-05-24T17:29:44.426Z,9.35
2023-05-24T17:32:12.305Z,8.05
2023-05-24T17:34:40.231Z,9.98
2023-05-24T17:37:08.196Z,9.45
2023-05-24T17:39:36.005Z,10.50
2023-05-24T17:42:04.717Z,10.20
2023-05-24T17:44:32.725Z,10.70
2023-05-24T17:47:02.062Z,9.35
2023-05-24T17:49:30.066Z,9.50
2023-05-24T17:52:00.530Z,17.42
2023-05-24T17:54:29.019Z,11.18
2023-05-24T17:56:57.017Z,9.38
2023-05-24T17:59:24.907Z,10.23
2023-05-24T18:01:52.797Z,8.13
2023-05-24T18:04:21.982Z,9.93
2023-05-24T18:06:49.953Z,7.68
2023-05-24T18:09:18.016Z,7.70
2023-05-24T18:11:45.865Z,10.32
2023-05-24T18:14:13.735Z,9.02
2023-05-24T18:16:42.889Z,9.48
2023-05-24T18:19:10.848Z,9.98
2023-05-24T18:21:40.954Z,10.07
2023-05-24T18:24:08.904Z,9.85
2023-05-24T18:26:36.919Z,6.47
2023-05-24T18:29:04.727Z,9.05
2023-05-24T18:31:32.519Z,9.07
2023-05-24T18:34:01.825Z,7.97
2023-05-24T18:36:30.253Z,10.27
2023-05-24T18:38:59.532Z,8.68
2023-05-24T18:41:27.326Z,9.63
2023-05-24T18:43:55.158Z,10.23
2023-05-24T18:46:23.098Z,11.05
2023-05-24T18:48:52.679Z,10.90
2023-05-24T18:51:20.718Z,8.85
2023-05-24T18:53:50.460Z,11.95
2023-05-24T18:56:19.800Z,11.88
2023-05-24T18:58:49.801Z,6.38
2023-05-24T19:01:17.968Z,7.90
2023-05-24T19:03:45.961Z,8.35
2023-05-24T19:06:14.557Z,7.40
2023-05-24T19:08:42.836Z,11.43
2023-05-24T19:11:11.397Z,8.57
2023-05-24T19:13:41.547Z,5.63
2023-05-24T19:16:09.995Z,8.93
2023-05-24T19:18:38.012Z,9.88
2023-05-24T19:21:06.222Z,7.25
2023-05-24T19:23:34.135Z,8.95
2023-05-24T19:26:02.032Z,7.22
2023-05-24T19:28:30.499Z,9.02
2023-05-24T19:31:02.402Z,12.55
2023-05-24T19:33:30.356Z,9.13
2023-05-24T19:35:58.197Z,9.20
2023-05-24T19:38:26.376Z,8.95
2023-05-24T19:40:54.221Z,10.70
2023-05-24T19:43:22.005Z,7.90
2023-05-24T19:45:51.757Z,8.98
2023-05-24T19:48:21.684Z,9.35
2023-05-24T19:50:50.468Z,11.25
2023-05-24T19:53:18.352Z,8.95
2023-05-24T19:55:46.318Z,10.85
2023-05-24T19:58:14.367Z,10.77
2023-05-24T20:00:42.750Z,8.40
2023-05-24T20:03:10.836Z,10.07
2023-05-24T20:05:40.581Z,9.70
2023-05-24T20:08:08.517Z,11.07
2023-05-24T20:10:38.747Z,10.60
2023-05-24T20:13:06.709Z,8.80
2023-05-24T20:15:34.622Z,10.98
2023-05-24T20:18:02.561Z,9.07
2023-05-24T20:20:30.509Z,10.38
2023-05-24T20:23:00.032Z,9.60
2023-05-24T20:25:27.924Z,11.35
2023-05-24T20:27:55.911Z,11.47
2023-05-24T20:30:23.777Z,9.63
2023-05-24T20:32:51.749Z,8.90
2023-05-24T20:35:19.620Z,10.20
2023-05-24T20:37:47.509Z,13.43
2023-05-24T20:40:23.946Z,11.40
2023-05-24T20:42:52.193Z,12.17
2023-05-24T20:45:20.042Z,10.73
2023-05-24T20:47:47.944Z,8.43
2023-05-24T20:50:16.099Z,10.80
2023-05-24T20:52:44.007Z,14.60
2023-05-24T20:55:12.089Z,9.43
2023-05-24T20:57:41.528Z,11.10
2023-05-24T21:00:10.766Z,8.23
2023-05-24T21:02:40.318Z,7.80
2023-05-24T21:05:09.685Z,10.77
2023-05-24T21:07:37.511Z,10.87
2023-05-24T21:10:07.719Z,11.23
2023-05-24T21:12:35.815Z,11.57
2023-05-24T21:15:06.730Z,11.33
2023-05-24T21:17:34.706Z,12.02
2023-05-24T21:20:04.042Z,11.93
2023-05-24T21:22:32.261Z,12.80
2023-05-24T21:25:00.203Z,12.10
2023-05-24T21:27:28.180Z,11.17
2023-05-24T21:29:56.117Z,13.47
2023-05-24T21:32:25.415Z,12.67
2023-05-24T21:34:53.330Z,12.33
2023-05-24T21:37:21.156Z,10.43
2023-05-24T21:39:50.095Z,13.27
2023-05-24T21:42:18.016Z,12.43
2023-05-24T21:44:45.825Z,11.30
2023-05-24T21:47:13.865Z,11.03
2023-05-24T21:49:43.126Z,11.70
2023-05-24T21:52:11.078Z,10.43
2023-05-24T21:54:38.973Z,14.53
2023-05-24T21:57:07.181Z,14.60
2023-05-24T21:59:35.160Z,13.30
2023-05-24T22:02:03.373Z,10.60
2023-05-24T22:04:31.315Z,10.77
2023-05-24T22:07:00.775Z,15.63
2023-05-24T22:09:28.581Z,12.10
2023-05-24T22:11:56.483Z,12.83
2023-05-24T22:14:24.290Z,11.03
2023-05-24T22:16:52.260Z,15.03
2023-05-24T22:19:38.511Z,12.57
2023-05-24T22:22:09.903Z,12.50
2023-05-24T22:24:37.821Z,13.23
2023-05-24T22:27:09.525Z,11.47
2023-05-24T22:29:37.410Z,13.87
2023-05-24T22:32:05.967Z,13.43
2023-05-24T22:34:33.860Z,11.60
2023-05-24T22:37:01.627Z,12.63
2023-05-24T22:39:31.052Z,12.87
2023-05-24T22:41:59.007Z,10.33
2023-05-24T22:44:26.950Z,13.67
2023-05-24T22:46:54.825Z,10.30
2023-05-24T22:49:22.900Z,10.57
2023-05-24T22:51:51.110Z,12.50
2023-05-24T22:54:19.984Z,16.83
2023-05-24T22:56:49.252Z,14.43
2023-05-24T22:59:17.288Z,15.37
2023-05-24T23:01:45.260Z,13.37
2023-05-24T23:06:47.377Z,13.93
2023-05-24T23:09:15.233Z,11.70
2023-05-24T23:11:43.186Z,12.30
2023-05-24T23:14:12.268Z,15.67
2023-05-24T23:16:45.712Z,12.50
2023-05-24T23:19:18.091Z,12.83
2023-05-24T23:21:46.313Z,12.23
2023-05-24T23:24:15.678Z,17.80
2023-05-24T23:26:43.817Z,11.53
2023-05-24T23:29:13.419Z,11.17
2023-05-24T23:31:41.655Z,13.93
2023-05-24T23:34:09.592Z,17.03
2023-05-24T23:36:37.450Z,14.20
2023-05-24T23:39:06.125Z,13.47
2023-05-24T23:41:33.993Z,13.10
2023-05-24T23:44:01.814Z,13.73
2023-05-24T23:46:31.191Z,14.70
2023-05-24T23:48:59.945Z,16.00
2023-05-24T23:51:32.807Z,12.90
2023-05-24T23:54:01.487Z,17.27
2023-05-24T23:56:29.520Z,14.47
2023-05-24T23:58:57.550Z,15.67
